Wetterdaten: Woche 26.12.11 - 01.01.12 (KW52)
Datum Zeit Temp. Innen Temp. Aussen UV X Diff Temp. Feuchte Inne Feuchte Auss Sonnenschein Luftdruck Regen ab 0,1 Wind Sonnenschein T Regendauer Windben
26.12.2011 00:00 14,7 C 9,2 C 0,0 UV-I 0,0 C 62 % 90 % 0 % 1033,3 hPa 0,0 l/m 8,3 km/h (2 Bft) 0,00 h 0,13 h 14,3 km/h (3 Bft)
26.12.2011 01:00 14,7 C 8,9 C 0,0 UV-I 0,0 C 62 % 91 % 0 % 1033,4 hPa 0,1 l/m 7,4 km/h (2 Bft) 0,00 h 0,23 h 14,1 km/h (3 Bft)
26.12.2011 02:00 14,7 C 8,8 C 0,0 UV-I 0,0 C 63 % 92 % 0 % 1033,6 hPa 0,0 l/m 8,1 km/h (2 Bft) 0,00 h 0,03 h 15,3 km/h (3 Bft)
26.12.2011 03:00 14,8 C 8,8 C 0,0 UV-I 0,0 C 63 % 92 % 0 % 1033,5 hPa 0,1 l/m 7,7 km/h (2 Bft) 0,00 h 0,00 h 13,6 km/h (3 Bft)
26.12.2011 04:00 14,8 C 8,8 C 0,0 UV-I 0,0 C 63 % 93 % 0 % 1033,4 hPa 0,0 l/m 7,7 km/h (2 Bft) 0,00 h 0,00 h 15,7 km/h (3 Bft)
26.12.2011 05:00 14,8 C 8,9 C 0,0 UV-I 0,0 C 63 % 93 % 0 % 1033,5 hPa 0,0 l/m 6,5 km/h (2 Bft) 0,00 h 0,10 h 10,5 km/h (2 Bft)
26.12.2011 06:00 14,8 C 9,0 C 0,0 UV-I 0,0 C 64 % 93 % 0 % 1033,8 hPa 0,1 l/m 4,8 km/h (1 Bft) 0,00 h 0,17 h 8,4 km/h (2 Bft)
26.12.2011 07:00 14,8 C 9,1 C 0,0 UV-I 0,0 C 64 % 93 % 0 % 1034,3 hPa 0,1 l/m 4,3 km/h (1 Bft) 0,00 h 0,17 h 9,2 km/h (2 Bft)
26.12.2011 08:00 14,8 C 9,2 C 0,0 UV-I 0,0 C 64 % 93 % 0 % 1034,5 hPa 0,0 l/m 6,2 km/h (2 Bft) 0,00 h 0,07 h 10,9 km/h (2 Bft)
26.12.2011 09:00 14,9 C 9,1 C 0,0 UV-I 0,0 C 64 % 94 % 0 % 1034,9 hPa 0,1 l/m 5,6 km/h (1 Bft) 0,00 h 0,37 h 9,6 km/h (2 Bft)
26.12.2011 10:00 15,0 C 9,2 C 0,0 UV-I 0,0 C 64 % 94 % 0 % 1035,5 hPa 0,1 l/m 5,7 km/h (1 Bft) 0,00 h 0,13 h 11,1 km/h (2 Bft)
26.12.2011 11:00 15,0 C 9,4 C 0,0 UV-I 0,0 C 65 % 94 % 0 % 1036,0 hPa 0,0 l/m 5,8 km/h (2 Bft) 0,00 h 0,03 h 12,3 km/h (3 Bft)
26.12.2011 12:00 15,2 C 9,6 C 0,0 UV-I 0,0 C 65 % 94 % 0 % 1036,0 hPa 0,1 l/m 5,1 km/h (1 Bft) 0,00 h 0,07 h 10,5 km/h (2 Bft)
26.12.2011 13:00 15,2 C 9,6 C 0,0 UV-I 0,0 C 65 % 94 % 0 % 1035,8 hPa 0,0 l/m 3,3 km/h (1 Bft) 0,00 h 0,20 h 6,4 km/h (2 Bft)
26.12.2011 14:00 15,1 C 9,6 C 0,0 UV-I 0,0 C 65 % 94 % 0 % 1035,9 hPa 0,1 l/m 2,8 km/h (1 Bft) 0,00 h 0,07 h 5,5 km/h (1 Bft)
26.12.2011 15:00 15,3 C 9,7 C 0,0 UV-I 0,0 C 65 % 94 % 0 % 1035,8 hPa 0,0 l/m 3,5 km/h (1 Bft) 0,00 h 0,00 h 6,9 km/h (2 Bft)
26.12.2011 16:00 15,2 C 9,9 C 0,0 UV-I 0,0 C 65 % 94 % 0 % 1036,3 hPa 0,0 l/m 2,3 km/h (1 Bft) 0,00 h 0,03 h 6,0 km/h (2 Bft)
26.12.2011 17:00 15,2 C 9,9 C 0,0 UV-I 0,0 C 65 % 94 % 0 % 1036,5 hPa 0,0 l/m 2,7 km/h (1 Bft) 0,00 h 0,00 h 6,8 km/h (2 Bft)
26.12.2011 18:00 15,4 C 9,9 C 0,0 UV-I 0,0 C 65 % 94 % 0 % 1036,4 hPa 0,0 l/m 1,7 km/h (1 Bft) 0,00 h 0,00 h 5,9 km/h (2 Bft)
26.12.2011 19:00 15,4 C 9,9 C 0,0 UV-I 0,0 C 65 % 94 % 0 % 1036,8 hPa 0,0 l/m 1,1 km/h (1 Bft) 0,00 h 0,00 h 5,0 km/h (1 Bft)
26.12.2011 20:00 15,4 C 9,9 C 0,0 UV-I 0,0 C 65 % 94 % 0 % 1036,9 hPa 0,0 l/m 2,1 km/h (1 Bft) 0,00 h 0,00 h 4,9 km/h (1 Bft)
26.12.2011 21:00 15,5 C 9,9 C 0,0 UV-I 0,0 C 65 % 94 % 0 % 1037,1 hPa 0,0 l/m 2,8 km/h (1 Bft) 0,00 h 0,00 h 7,6 km/h (2 Bft)
26.12.2011 22:00 15,5 C 9,9 C 0,0 UV-I 0,0 C 65 % 94 % 0 % 1036,9 hPa 0,0 l/m 3,8 km/h (1 Bft) 0,00 h 0,00 h 8,2 km/h (2 Bft)
26.12.2011 23:00 15,5 C 9,8 C 0,0 UV-I 0,0 C 65 % 93 % 0 % 1036,8 hPa 0,0 l/m 4,3 km/h (1 Bft) 0,00 h 0,00 h 9,2 km/h (2 Bft)
27.12.2011 00:00 15,4 C 9,8 C 0,0 UV-I 0,0 C 65 % 93 % 0 % 1036,2 hPa 0,0 l/m 5,9 km/h (2 Bft) 0,00 h 0,00 h 11,0 km/h (2 Bft)
27.12.2011 01:00 15,5 C 9,8 C 0,0 UV-I 0,0 C 64 % 93 % 0 % 1036,0 hPa 0,0 l/m 6,5 km/h (2 Bft) 0,00 h 0,00 h 10,1 km/h (2 Bft)
27.12.2011 02:00 15,4 C 9,7 C 0,0 UV-I 0,0 C 64 % 93 % 0 % 1036,0 hPa 0,0 l/m 2,4 km/h (1 Bft) 0,00 h 0,00 h 5,4 km/h (1 Bft)
27.12.2011 03:00 15,6 C 9,7 C 0,0 UV-I 0,0 C 64 % 93 % 0 % 1036,0 hPa 0,0 l/m 3,1 km/h (1 Bft) 0,00 h 0,00 h 6,9 km/h (2 Bft)
27.12.2011 04:00 15,6 C 9,8 C 0,0 UV-I 0,0 C 63 % 92 % 0 % 1036,0 hPa 0,0 l/m 4,7 km/h (1 Bft) 0,00 h 0,00 h 9,3 km/h (2 Bft)
27.12.2011 05:00 15,6 C 9,7 C 0,0 UV-I 0,0 C 62 % 90 % 0 % 1036,1 hPa 0,0 l/m 5,6 km/h (1 Bft) 0,00 h 0,00 h 10,2 km/h (2 Bft)
27.12.2011 06:00 15,5 C 9,7 C 0,0 UV-I 0,0 C 61 % 89 % 0 % 1036,2 hPa 0,0 l/m 5,3 km/h (1 Bft) 0,00 h 0,00 h 9,1 km/h (2 Bft)
27.12.2011 07:00 15,4 C 9,4 C 0,0 UV-I 0,0 C 61 % 88 % 0 % 1036,5 hPa 0,0 l/m 3,7 km/h (1 Bft) 0,00 h 0,00 h 6,7 km/h (2 Bft)
27.12.2011 08:00 15,5 C 9,2 C 0,0 UV-I 0,0 C 60 % 87 % 0 % 1036,4 hPa 0,0 l/m 3,3 km/h (1 Bft) 0,00 h 0,00 h 6,9 km/h (2 Bft)
27.12.2011 09:00 15,4 C 9,2 C 0,0 UV-I 0,0 C 60 % 86 % 0 % 1036,8 hPa 0,0 l/m 3,3 km/h (1 Bft) 0,00 h 0,00 h 8,6 km/h (2 Bft)
27.12.2011 10:00 15,5 C 9,1 C 0,0 UV-I 0,0 C 59 % 85 % 0 % 1037,0 hPa 0,0 l/m 2,7 km/h (1 Bft) 0,00 h 0,00 h 6,6 km/h (2 Bft)
27.12.2011 11:00 15,6 C 9,1 C 0,0 UV-I 0,0 C 59 % 84 % 0 % 1037,1 hPa 0,0 l/m 3,2 km/h (1 Bft) 0,00 h 0,00 h 7,2 km/h (2 Bft)
27.12.2011 12:00 15,6 C 9,2 C 0,0 UV-I 0,1 C 58 % 84 % 3 % 1036,9 hPa 0,0 l/m 2,3 km/h (1 Bft) 0,00 h 0,00 h 5,7 km/h (1 Bft)
27.12.2011 13:00 15,6 C 9,2 C 0,0 UV-I 0,0 C 57 % 81 % 1 % 1036,3 hPa 0,0 l/m 2,7 km/h (1 Bft) 0,00 h 0,00 h 7,3 km/h (2 Bft)
27.12.2011 14:00 15,7 C 9,1 C 0,0 UV-I 0,0 C 57 % 80 % 0 % 1036,0 hPa 0,0 l/m 2,9 km/h (1 Bft) 0,00 h 0,00 h 7,5 km/h (2 Bft)
27.12.2011 15:00 15,6 C 9,0 C 0,0 UV-I 0,0 C 57 % 81 % 0 % 1036,1 hPa 0,0 l/m 1,2 km/h (1 Bft) 0,00 h 0,00 h 2,3 km/h (1 Bft)
27.12.2011 16:00 15,6 C 8,7 C 0,0 UV-I 0,0 C 56 % 81 % 0 % 1036,2 hPa 0,0 l/m 0,6 km/h (0 Bft) 0,00 h 0,00 h 1,8 km/h (1 Bft)
27.12.2011 17:00 15,6 C 8,5 C 0,0 UV-I 0,0 C 56 % 81 % 0 % 1035,6 hPa 0,0 l/m 1,0 km/h (0 Bft) 0,00 h 0,00 h 3,7 km/h (1 Bft)
27.12.2011 18:00 15,5 C 8,4 C 0,0 UV-I 0,0 C 56 % 81 % 0 % 1035,5 hPa 0,0 l/m 0,2 km/h (0 Bft) 0,00 h 0,00 h 0,8 km/h (0 Bft)
27.12.2011 19:00 15,4 C 8,4 C 0,0 UV-I 0,0 C 56 % 79 % 0 % 1035,3 hPa 0,0 l/m 1,8 km/h (1 Bft) 0,00 h 0,00 h 5,2 km/h (1 Bft)
27.12.2011 20:00 15,5 C 8,3 C 0,0 UV-I 0,0 C 54 % 77 % 0 % 1035,2 hPa 0,0 l/m 1,9 km/h (1 Bft) 0,00 h 0,00 h 5,0 km/h (1 Bft)
27.12.2011 21:00 15,3 C 8,1 C 0,0 UV-I 0,0 C 54 % 78 % 0 % 1034,4 hPa 0,0 l/m 0,8 km/h (0 Bft) 0,00 h 0,00 h 2,7 km/h (1 Bft)
27.12.2011 22:00 15,3 C 8,0 C 0,0 UV-I 0,0 C 54 % 78 % 0 % 1033,9 hPa 0,0 l/m 1,1 km/h (1 Bft) 0,00 h 0,00 h 3,2 km/h (1 Bft)
27.12.2011 23:00 15,4 C 7,8 C 0,0 UV-I 0,0 C 54 % 78 % 0 % 1033,4 hPa 0,0 l/m 0,9 km/h (0 Bft) 0,00 h 0,00 h 2,7 km/h (1 Bft)
28.12.2011 00:00 15,4 C 7,6 C 0,0 UV-I 0,0 C 54 % 79 % 0 % 1032,6 hPa 0,0 l/m 0,8 km/h (0 Bft) 0,00 h 0,00 h 2,4 km/h (1 Bft)
28.12.2011 01:00 15,4 C 7,6 C 0,0 UV-I 0,0 C 54 % 81 % 0 % 1031,9 hPa 0,0 l/m 1,4 km/h (1 Bft) 0,00 h 0,00 h 5,8 km/h (2 Bft)
28.12.2011 02:00 15,4 C 7,5 C 0,0 UV-I 0,0 C 55 % 83 % 0 % 1031,1 hPa 0,0 l/m 1,4 km/h (1 Bft) 0,00 h 0,00 h 3,7 km/h (1 Bft)
28.12.2011 03:00 15,4 C 7,5 C 0,0 UV-I 0,0 C 55 % 84 % 0 % 1030,6 hPa 0,0 l/m 1,8 km/h (1 Bft) 0,00 h 0,00 h 4,7 km/h (1 Bft)
28.12.2011 04:00 15,4 C 7,6 C 0,0 UV-I 0,0 C 55 % 84 % 0 % 1029,4 hPa 0,0 l/m 2,8 km/h (1 Bft) 0,00 h 0,00 h 6,7 km/h (2 Bft)
28.12.2011 05:00 15,4 C 7,4 C 0,0 UV-I 0,0 C 55 % 85 % 0 % 1028,0 hPa 0,0 l/m 5,4 km/h (1 Bft) 0,00 h 0,00 h 11,9 km/h (2 Bft)
28.12.2011 06:00 15,2 C 6,5 C 0,0 UV-I 0,0 C 55 % 86 % 0 % 1026,4 hPa 0,0 l/m 5,2 km/h (1 Bft) 0,00 h 0,00 h 9,7 km/h (2 Bft)
28.12.2011 07:00 15,2 C 6,1 C 0,0 UV-I 0,0 C 56 % 88 % 0 % 1025,8 hPa 0,0 l/m 4,6 km/h (1 Bft) 0,00 h 0,00 h 10,2 km/h (2 Bft)
28.12.2011 08:00 15,0 C 5,9 C 0,0 UV-I 0,0 C 55 % 89 % 0 % 1025,4 hPa 0,0 l/m 4,3 km/h (1 Bft) 0,00 h 0,00 h 8,1 km/h (2 Bft)
28.12.2011 09:00 15,0 C 5,9 C 0,0 UV-I 0,2 C 55 % 89 % 6 % 1024,5 hPa 0,0 l/m 6,8 km/h (2 Bft) 0,10 h 0,00 h 12,2 km/h (3 Bft)
28.12.2011 10:00 15,1 C 6,7 C 0,0 UV-I 2,6 C 55 % 88 % 74 % 1024,5 hPa 0,0 l/m 5,0 km/h (1 Bft) 0,97 h 0,00 h 10,9 km/h (2 Bft)
28.12.2011 11:00 15,2 C 7,1 C 0,0 UV-I 1,2 C 54 % 86 % 34 % 1024,9 hPa 0,0 l/m 6,7 km/h (2 Bft) 0,33 h 0,00 h 12,5 km/h (3 Bft)
28.12.2011 12:00 15,0 C 7,0 C 0,0 UV-I 0,1 C 53 % 85 % 3 % 1023,5 hPa 0,0 l/m 8,4 km/h (2 Bft) 0,00 h 0,00 h 15,9 km/h (3 Bft)
28.12.2011 13:00 14,9 C 7,1 C 0,0 UV-I 0,0 C 53 % 83 % 1 % 1022,4 hPa 0,0 l/m 8,5 km/h (2 Bft) 0,00 h 0,00 h 16,9 km/h (3 Bft)
28.12.2011 14:00 14,8 C 7,1 C 0,0 UV-I 0,0 C 53 % 83 % 0 % 1021,8 hPa 0,0 l/m 8,1 km/h (2 Bft) 0,00 h 0,00 h 14,1 km/h (3 Bft)
28.12.2011 15:00 14,8 C 6,8 C 0,0 UV-I 0,0 C 53 % 85 % 0 % 1021,0 hPa 0,0 l/m 8,1 km/h (2 Bft) 0,00 h 0,00 h 13,0 km/h (3 Bft)
28.12.2011 16:00 14,7 C 6,5 C 0,0 UV-I 0,0 C 54 % 88 % 0 % 1020,6 hPa 0,0 l/m 10,1 km/h (2 Bft) 0,00 h 0,00 h 17,1 km/h (3 Bft)
28.12.2011 17:00 14,6 C 6,5 C 0,0 UV-I 0,0 C 54 % 88 % 0 % 1020,8 hPa 0,0 l/m 9,6 km/h (2 Bft) 0,00 h 0,00 h 18,6 km/h (3 Bft)
28.12.2011 18:00 14,4 C 6,7 C 0,0 UV-I 0,0 C 55 % 88 % 0 % 1020,3 hPa 0,0 l/m 8,2 km/h (2 Bft) 0,00 h 0,00 h 11,4 km/h (2 Bft)
28.12.2011 19:00 14,4 C 6,6 C 0,0 UV-I 0,0 C 54 % 87 % 0 % 1019,9 hPa 0,0 l/m 9,1 km/h (2 Bft) 0,00 h 0,00 h 13,0 km/h (3 Bft)
28.12.2011 20:00 14,3 C 6,3 C 0,0 UV-I 0,0 C 54 % 87 % 0 % 1019,8 hPa 0,1 l/m 8,6 km/h (2 Bft) 0,00 h 0,60 h 14,0 km/h (3 Bft)
28.12.2011 21:00 14,3 C 5,9 C 0,0 UV-I 0,0 C 55 % 89 % 0 % 1020,0 hPa 0,1 l/m 8,7 km/h (2 Bft) 0,00 h 0,23 h 14,4 km/h (3 Bft)
28.12.2011 22:00 14,2 C 6,2 C 0,0 UV-I 0,0 C 56 % 90 % 0 % 1019,8 hPa 0,1 l/m 8,1 km/h (2 Bft) 0,00 h 0,27 h 14,7 km/h (3 Bft)
28.12.2011 23:00 14,2 C 6,6 C 0,0 UV-I 0,0 C 56 % 90 % 0 % 1020,1 hPa 0,0 l/m 8,9 km/h (2 Bft) 0,00 h 0,00 h 14,6 km/h (3 Bft)
29.12.2011 00:00 14,3 C 6,7 C 0,0 UV-I 0,0 C 56 % 89 % 0 % 1020,4 hPa 0,0 l/m 9,9 km/h (2 Bft) 0,00 h 0,00 h 17,2 km/h (3 Bft)
29.12.2011 01:00 14,1 C 6,1 C 0,0 UV-I 0,0 C 54 % 86 % 0 % 1020,4 hPa 0,0 l/m 9,9 km/h (2 Bft) 0,00 h 0,00 h 15,6 km/h (3 Bft)
29.12.2011 02:00 14,0 C 5,6 C 0,0 UV-I 0,0 C 53 % 84 % 0 % 1020,4 hPa 0,0 l/m 10,0 km/h (2 Bft) 0,00 h 0,00 h 14,8 km/h (3 Bft)
29.12.2011 03:00 13,9 C 5,2 C 0,0 UV-I 0,0 C 53 % 84 % 0 % 1020,7 hPa 0,0 l/m 9,8 km/h (2 Bft) 0,00 h 0,00 h 14,0 km/h (3 Bft)
29.12.2011 04:00 13,8 C 5,1 C 0,0 UV-I 0,0 C 52 % 84 % 0 % 1021,0 hPa 0,0 l/m 10,1 km/h (2 Bft) 0,00 h 0,00 h 16,3 km/h (3 Bft)
29.12.2011 05:00 13,7 C 5,0 C 0,0 UV-I 0,0 C 52 % 84 % 0 % 1020,8 hPa 0,0 l/m 9,8 km/h (2 Bft) 0,00 h 0,00 h 15,1 km/h (3 Bft)
29.12.2011 06:00 13,6 C 5,1 C 0,0 UV-I 0,0 C 52 % 84 % 0 % 1020,8 hPa 0,0 l/m 10,2 km/h (2 Bft) 0,00 h 0,00 h 16,5 km/h (3 Bft)
29.12.2011 07:00 13,6 C 4,7 C 0,0 UV-I 0,0 C 52 % 84 % 0 % 1020,8 hPa 0,0 l/m 9,9 km/h (2 Bft) 0,00 h 0,03 h 16,3 km/h (3 Bft)
29.12.2011 08:00 13,5 C 4,7 C 0,0 UV-I 0,0 C 52 % 85 % 0 % 1021,1 hPa 0,0 l/m 10,8 km/h (2 Bft) 0,00 h 0,10 h 14,9 km/h (3 Bft)
29.12.2011 09:00 13,5 C 5,0 C 0,0 UV-I 0,0 C 51 % 84 % 0 % 1021,1 hPa 0,0 l/m 11,2 km/h (2 Bft) 0,00 h 0,00 h 19,4 km/h (3 Bft)
29.12.2011 10:00 13,4 C 5,2 C 0,0 UV-I 0,1 C 51 % 83 % 3 % 1020,9 hPa 0,0 l/m 11,9 km/h (2 Bft) 0,00 h 0,00 h 18,9 km/h (3 Bft)
29.12.2011 11:00 13,6 C 5,9 C 0,1 UV-I 2,6 C 51 % 80 % 74 % 1020,3 hPa 0,0 l/m 11,7 km/h (2 Bft) 0,87 h 0,00 h 19,2 km/h (3 Bft)
29.12.2011 12:00 13,8 C 6,3 C 0,0 UV-I 0,3 C 50 % 77 % 9 % 1019,2 hPa 0,0 l/m 13,4 km/h (3 Bft) 0,00 h 0,00 h 24,0 km/h (4 Bft)
29.12.2011 13:00 13,8 C 6,1 C 0,0 UV-I 0,0 C 49 % 78 % 0 % 1017,8 hPa 0,5 l/m 13,5 km/h (3 Bft) 0,00 h 0,60 h 23,7 km/h (4 Bft)
29.12.2011 14:00 13,6 C 4,8 C 0,0 UV-I 0,0 C 52 % 86 % 0 % 1016,7 hPa 1,0 l/m 12,9 km/h (3 Bft) 0,00 h 0,97 h 19,3 km/h (3 Bft)
29.12.2011 15:00 13,4 C 5,1 C 0,0 UV-I 0,0 C 53 % 90 % 0 % 1015,9 hPa 0,2 l/m 13,3 km/h (3 Bft) 0,00 h 0,43 h 21,9 km/h (4 Bft)
29.12.2011 16:00 13,2 C 5,6 C 0,0 UV-I 0,0 C 54 % 90 % 0 % 1015,2 hPa 0,2 l/m 10,7 km/h (2 Bft) 0,00 h 0,67 h 16,5 km/h (3 Bft)
29.12.2011 17:00 13,3 C 6,0 C 0,0 UV-I 0,0 C 55 % 91 % 0 % 1013,9 hPa 0,2 l/m 9,9 km/h (2 Bft) 0,00 h 0,60 h 16,2 km/h (3 Bft)
29.12.2011 18:00 13,4 C 6,4 C 0,0 UV-I 0,0 C 56 % 90 % 0 % 1012,7 hPa 0,0 l/m 12,6 km/h (3 Bft) 0,00 h 0,27 h 19,6 km/h (3 Bft)
29.12.2011 19:00 13,4 C 6,8 C 0,0 UV-I 0,0 C 56 % 89 % 0 % 1011,2 hPa 0,0 l/m 12,9 km/h (3 Bft) 0,00 h 0,23 h 19,5 km/h (3 Bft)
29.12.2011 20:00 13,3 C 7,2 C 0,0 UV-I 0,0 C 57 % 88 % 0 % 1009,6 hPa 0,1 l/m 17,0 km/h (3 Bft) 0,00 h 0,53 h 28,6 km/h (4 Bft)
29.12.2011 21:00 13,4 C 7,0 C 0,0 UV-I 0,0 C 57 % 88 % 0 % 1008,3 hPa 1,0 l/m 17,3 km/h (3 Bft) 0,00 h 0,43 h 26,9 km/h (4 Bft)
29.12.2011 22:00 13,3 C 5,8 C 0,0 UV-I 0,0 C 57 % 89 % 0 % 1007,6 hPa 1,2 l/m 13,6 km/h (3 Bft) 0,00 h 0,10 h 24,5 km/h (4 Bft)
29.12.2011 23:00 13,2 C 5,6 C 0,0 UV-I 0,0 C 57 % 89 % 0 % 1006,9 hPa 0,0 l/m 11,6 km/h (2 Bft) 0,00 h 0,00 h 18,7 km/h (3 Bft)
30.12.2011 00:00 13,2 C 5,5 C 0,0 UV-I 0,0 C 56 % 89 % 0 % 1007,1 hPa 0,0 l/m 11,2 km/h (2 Bft) 0,00 h 0,00 h 19,6 km/h (3 Bft)
30.12.2011 01:00 13,3 C 5,3 C 0,0 UV-I 0,0 C 56 % 89 % 0 % 1007,0 hPa 0,0 l/m 9,7 km/h (2 Bft) 0,00 h 0,00 h 15,6 km/h (3 Bft)
30.12.2011 02:00 13,2 C 5,4 C 0,0 UV-I 0,0 C 55 % 86 % 0 % 1006,7 hPa 0,0 l/m 11,9 km/h (2 Bft) 0,00 h 0,00 h 23,5 km/h (4 Bft)
30.12.2011 03:00 13,2 C 5,0 C 0,0 UV-I 0,0 C 53 % 83 % 0 % 1007,0 hPa 0,0 l/m 13,5 km/h (3 Bft) 0,00 h 0,53 h 23,1 km/h (4 Bft)
30.12.2011 04:00 13,2 C 3,3 C 0,0 UV-I 0,0 C 53 % 86 % 0 % 1007,7 hPa 0,9 l/m 10,3 km/h (2 Bft) 0,00 h 0,40 h 24,1 km/h (4 Bft)
30.12.2011 05:00 13,2 C 3,1 C 0,0 UV-I 0,0 C 53 % 89 % 0 % 1008,2 hPa 0,6 l/m 7,9 km/h (2 Bft) 0,00 h 0,37 h 15,3 km/h (3 Bft)
30.12.2011 06:00 13,1 C 3,5 C 0,0 UV-I 0,0 C 53 % 90 % 0 % 1008,6 hPa 0,0 l/m 7,9 km/h (2 Bft) 0,00 h 0,03 h 14,2 km/h (3 Bft)
30.12.2011 07:00 13,1 C 3,7 C 0,0 UV-I 0,0 C 53 % 90 % 0 % 1009,3 hPa 0,1 l/m 9,1 km/h (2 Bft) 0,00 h 0,60 h 14,4 km/h (3 Bft)
30.12.2011 08:00 13,1 C 4,0 C 0,0 UV-I 0,0 C 53 % 90 % 0 % 1010,3 hPa 0,1 l/m 11,8 km/h (2 Bft) 0,00 h 0,53 h 21,7 km/h (4 Bft)
30.12.2011 09:00 13,1 C 4,4 C 0,0 UV-I 0,0 C 53 % 89 % 0 % 1011,4 hPa 0,5 l/m 12,6 km/h (3 Bft) 0,00 h 0,57 h 22,2 km/h (4 Bft)
30.12.2011 10:00 13,2 C 4,4 C 0,0 UV-I 0,1 C 53 % 89 % 3 % 1012,6 hPa 0,0 l/m 9,5 km/h (2 Bft) 0,00 h 0,57 h 17,2 km/h (3 Bft)
30.12.2011 11:00 13,4 C 5,0 C 0,0 UV-I 0,4 C 53 % 89 % 12 % 1013,7 hPa 0,0 l/m 7,9 km/h (2 Bft) 0,00 h 0,00 h 16,6 km/h (3 Bft)
30.12.2011 12:00 13,6 C 5,7 C 0,2 UV-I 1,1 C 53 % 87 % 32 % 1014,0 hPa 0,0 l/m 9,0 km/h (2 Bft) 0,17 h 0,00 h 15,5 km/h (3 Bft)
30.12.2011 13:00 13,6 C 6,1 C 0,0 UV-I 0,3 C 53 % 85 % 10 % 1014,3 hPa 0,0 l/m 6,5 km/h (2 Bft) 0,03 h 0,00 h 11,8 km/h (2 Bft)
30.12.2011 14:00 13,7 C 6,1 C 0,0 UV-I 0,0 C 53 % 85 % 0 % 1014,4 hPa 0,0 l/m 6,3 km/h (2 Bft) 0,00 h 0,13 h 12,6 km/h (3 Bft)
30.12.2011 15:00 13,6 C 5,8 C 0,0 UV-I 0,0 C 54 % 86 % 0 % 1014,9 hPa 0,1 l/m 5,3 km/h (1 Bft) 0,00 h 0,40 h 9,7 km/h (2 Bft)
30.12.2011 16:00 13,6 C 5,3 C 0,0 UV-I 0,0 C 54 % 86 % 0 % 1015,5 hPa 0,0 l/m 6,9 km/h (2 Bft) 0,00 h 0,07 h 13,8 km/h (3 Bft)
30.12.2011 17:00 13,6 C 4,8 C 0,0 UV-I 0,0 C 54 % 88 % 0 % 1015,9 hPa 0,0 l/m 4,9 km/h (1 Bft) 0,00 h 0,00 h 10,4 km/h (2 Bft)
30.12.2011 18:00 13,5 C 4,5 C 0,0 UV-I 0,0 C 54 % 89 % 0 % 1016,2 hPa 0,0 l/m 3,3 km/h (1 Bft) 0,00 h 0,10 h 7,9 km/h (2 Bft)
30.12.2011 19:00 13,5 C 3,9 C 0,0 UV-I 0,0 C 54 % 89 % 0 % 1015,7 hPa 0,0 l/m 1,9 km/h (1 Bft) 0,00 h 0,00 h 4,2 km/h (1 Bft)
30.12.2011 20:00 13,4 C 3,5 C 0,0 UV-I 0,0 C 53 % 90 % 0 % 1015,9 hPa 0,0 l/m 2,9 km/h (1 Bft) 0,00 h 0,00 h 7,9 km/h (2 Bft)
30.12.2011 21:00 13,3 C 3,2 C 0,0 UV-I 0,0 C 53 % 89 % 0 % 1015,6 hPa 0,0 l/m 1,4 km/h (1 Bft) 0,00 h 0,00 h 3,5 km/h (1 Bft)
30.12.2011 22:00 13,4 C 3,0 C 0,0 UV-I 0,0 C 52 % 89 % 0 % 1015,1 hPa 0,0 l/m 1,0 km/h (0 Bft) 0,00 h 0,00 h 2,3 km/h (1 Bft)
30.12.2011 23:00 13,4 C 3,3 C 0,0 UV-I 0,0 C 52 % 88 % 0 % 1014,6 hPa 0,0 l/m 2,0 km/h (1 Bft) 0,00 h 0,00 h 5,5 km/h (1 Bft)
31.12.2011 00:00 13,4 C 3,6 C 0,0 UV-I 0,0 C 52 % 87 % 0 % 1013,9 hPa 0,0 l/m 2,5 km/h (1 Bft) 0,00 h 0,00 h 7,3 km/h (2 Bft)
31.12.2011 01:00 13,3 C 4,0 C 0,0 UV-I 0,0 C 51 % 87 % 0 % 1013,6 hPa 0,0 l/m 5,2 km/h (1 Bft) 0,00 h 0,00 h 10,4 km/h (2 Bft)
31.12.2011 02:00 13,3 C 3,8 C 0,0 UV-I 0,0 C 52 % 87 % 0 % 1013,1 hPa 0,1 l/m 3,1 km/h (1 Bft) 0,00 h 0,87 h 6,1 km/h (2 Bft)
31.12.2011 03:00 13,5 C 3,4 C 0,0 UV-I 0,0 C 52 % 89 % 0 % 1012,3 hPa 0,4 l/m 4,7 km/h (1 Bft) 0,00 h 0,90 h 8,9 km/h (2 Bft)
31.12.2011 04:00 13,5 C 3,2 C 0,0 UV-I 0,0 C 52 % 90 % 0 % 1011,3 hPa 0,2 l/m 7,2 km/h (2 Bft) 0,00 h 1,00 h 12,7 km/h (3 Bft)
31.12.2011 05:00 13,4 C 3,2 C 0,0 UV-I 0,0 C 53 % 91 % 0 % 1010,1 hPa 0,2 l/m 7,3 km/h (2 Bft) 0,00 h 1,00 h 12,4 km/h (3 Bft)
31.12.2011 06:00 13,5 C 3,3 C 0,0 UV-I 0,0 C 53 % 92 % 0 % 1009,3 hPa 1,2 l/m 7,2 km/h (2 Bft) 0,00 h 0,57 h 13,2 km/h (3 Bft)
31.12.2011 07:00 13,5 C 3,2 C 0,0 UV-I 0,0 C 53 % 92 % 0 % 1009,3 hPa 1,6 l/m 6,3 km/h (2 Bft) 0,00 h 0,97 h 10,7 km/h (2 Bft)
31.12.2011 08:00 13,5 C 3,4 C 0,0 UV-I 0,0 C 53 % 93 % 0 % 1009,2 hPa 1,0 l/m 7,6 km/h (2 Bft) 0,00 h 0,93 h 12,9 km/h (3 Bft)
31.12.2011 09:00 13,5 C 3,5 C 0,0 UV-I 0,0 C 53 % 93 % 0 % 1009,3 hPa 1,5 l/m 8,0 km/h (2 Bft) 0,00 h 0,97 h 12,9 km/h (3 Bft)
31.12.2011 10:00 13,5 C 3,9 C 0,0 UV-I 0,0 C 54 % 93 % 0 % 1009,4 hPa 0,9 l/m 5,3 km/h (1 Bft) 0,00 h 0,97 h 9,9 km/h (2 Bft)
31.12.2011 11:00 13,6 C 4,3 C 0,0 UV-I 0,0 C 54 % 93 % 0 % 1009,3 hPa 0,5 l/m 6,3 km/h (2 Bft) 0,00 h 0,50 h 10,3 km/h (2 Bft)
31.12.2011 12:00 13,7 C 5,0 C 0,0 UV-I 0,0 C 55 % 94 % 1 % 1008,9 hPa 0,1 l/m 3,2 km/h (1 Bft) 0,00 h 0,27 h 6,5 km/h (2 Bft)
31.12.2011 13:00 13,8 C 5,8 C 0,0 UV-I 0,1 C 55 % 94 % 3 % 1008,8 hPa 0,5 l/m 2,5 km/h (1 Bft) 0,00 h 0,70 h 5,7 km/h (1 Bft)
31.12.2011 14:00 13,9 C 8,3 C 0,0 UV-I 0,2 C 57 % 95 % 7 % 1008,7 hPa 0,1 l/m 1,6 km/h (1 Bft) 0,00 h 0,33 h 5,6 km/h (1 Bft)
31.12.2011 15:00 14,1 C 9,8 C 0,0 UV-I 0,0 C 60 % 95 % 0 % 1009,3 hPa 0,2 l/m 3,4 km/h (1 Bft) 0,00 h 0,53 h 7,8 km/h (2 Bft)
31.12.2011 16:00 14,2 C 10,0 C 0,0 UV-I 0,0 C 62 % 95 % 0 % 1009,9 hPa 0,2 l/m 4,1 km/h (1 Bft) 0,00 h 0,53 h 9,2 km/h (2 Bft)
31.12.2011 17:00 14,2 C 10,2 C 0,0 UV-I 0,0 C 64 % 95 % 0 % 1010,1 hPa 0,0 l/m 3,4 km/h (1 Bft) 0,00 h 0,03 h 6,5 km/h (2 Bft)
31.12.2011 18:00 14,3 C 10,3 C 0,0 UV-I 0,0 C 65 % 95 % 0 % 1010,5 hPa 0,0 l/m 5,3 km/h (1 Bft) 0,00 h 0,07 h 10,8 km/h (2 Bft)
31.12.2011 19:00 14,4 C 10,4 C 0,0 UV-I 0,0 C 66 % 95 % 0 % 1010,7 hPa 0,0 l/m 5,0 km/h (1 Bft) 0,00 h 0,03 h 9,2 km/h (2 Bft)
31.12.2011 20:00 14,4 C 10,5 C 0,0 UV-I 0,0 C 66 % 94 % 0 % 1010,7 hPa 0,0 l/m 3,3 km/h (1 Bft) 0,00 h 0,07 h 6,4 km/h (2 Bft)
31.12.2011 21:00 14,5 C 10,4 C 0,0 UV-I 0,0 C 67 % 94 % 0 % 1010,9 hPa 0,1 l/m 3,4 km/h (1 Bft) 0,00 h 0,37 h 7,4 km/h (2 Bft)
31.12.2011 22:00 14,6 C 10,6 C 0,0 UV-I 0,0 C 67 % 94 % 0 % 1011,1 hPa 0,1 l/m 5,3 km/h (1 Bft) 0,00 h 0,00 h 9,3 km/h (2 Bft)
31.12.2011 23:00 14,7 C 10,6 C 0,0 UV-I 0,0 C 68 % 94 % 0 % 1011,0 hPa 0,0 l/m 5,3 km/h (1 Bft) 0,00 h 0,00 h 9,4 km/h (2 Bft)
01.01.2012 00:00 14,8 C 10,8 C 0,0 UV-I 0,0 C 67 % 94 % 0 % 1010,9 hPa 0,0 l/m 5,8 km/h (2 Bft) 0,00 h 0,07 h 9,4 km/h (2 Bft)
01.01.2012 01:00 14,8 C 11,0 C 0,0 UV-I 0,0 C 67 % 94 % 0 % 1011,0 hPa 0,0 l/m 4,8 km/h (1 Bft) 0,00 h 0,00 h 8,5 km/h (2 Bft)
01.01.2012 02:00 14,8 C 11,0 C 0,0 UV-I 0,0 C 67 % 94 % 0 % 1010,7 hPa 0,0 l/m 5,0 km/h (1 Bft) 0,00 h 0,23 h 11,0 km/h (2 Bft)
01.01.2012 03:00 15,0 C 11,1 C 0,0 UV-I 0,0 C 68 % 94 % 0 % 1010,9 hPa 0,1 l/m 6,9 km/h (2 Bft) 0,00 h 0,07 h 13,8 km/h (3 Bft)
01.01.2012 04:00 15,1 C 11,3 C 0,0 UV-I 0,0 C 68 % 94 % 0 % 1010,7 hPa 0,0 l/m 6,9 km/h (2 Bft) 0,00 h 0,13 h 13,0 km/h (3 Bft)
01.01.2012 05:00 15,2 C 11,2 C 0,0 UV-I 0,0 C 68 % 94 % 0 % 1010,4 hPa 0,9 l/m 6,8 km/h (2 Bft) 0,00 h 0,57 h 14,2 km/h (3 Bft)
01.01.2012 06:00 15,2 C 11,3 C 0,0 UV-I 0,0 C 68 % 94 % 0 % 1010,1 hPa 0,0 l/m 9,2 km/h (2 Bft) 0,00 h 0,00 h 17,9 km/h (3 Bft)
01.01.2012 07:00 15,3 C 11,6 C 0,0 UV-I 0,0 C 68 % 94 % 0 % 1010,5 hPa 0,0 l/m 8,9 km/h (2 Bft) 0,00 h 0,00 h 15,2 km/h (3 Bft)
01.01.2012 08:00 15,4 C 11,9 C 0,0 UV-I 0,0 C 69 % 93 % 0 % 1010,6 hPa 0,0 l/m 8,6 km/h (2 Bft) 0,00 h 0,00 h 14,4 km/h (3 Bft)
01.01.2012 09:00 15,6 C 12,2 C 0,0 UV-I 0,0 C 69 % 93 % 0 % 1011,0 hPa 0,7 l/m 9,3 km/h (2 Bft) 0,00 h 0,10 h 15,0 km/h (3 Bft)
01.01.2012 10:00 15,6 C 12,1 C 0,0 UV-I 0,0 C 69 % 93 % 0 % 1011,4 hPa 0,5 l/m 7,7 km/h (2 Bft) 0,00 h 0,10 h 12,2 km/h (2 Bft)
01.01.2012 11:00 15,8 C 12,3 C 0,0 UV-I 0,0 C 69 % 93 % 0 % 1011,5 hPa 0,1 l/m 7,7 km/h (2 Bft) 0,00 h 0,00 h 12,6 km/h (3 Bft)
01.01.2012 12:00 16,0 C 12,4 C 0,0 UV-I 0,0 C 69 % 93 % 0 % 1011,1 hPa 0,0 l/m 7,2 km/h (2 Bft) 0,00 h 0,00 h 11,5 km/h (2 Bft)
01.01.2012 13:00 16,0 C 12,7 C 0,0 UV-I 0,0 C 69 % 93 % 0 % 1010,5 hPa 0,0 l/m 7,1 km/h (2 Bft) 0,00 h 0,00 h 12,5 km/h (3 Bft)
01.01.2012 14:00 16,1 C 12,8 C 0,0 UV-I 0,0 C 69 % 92 % 0 % 1009,7 hPa 0,4 l/m 6,5 km/h (2 Bft) 0,00 h 0,47 h 11,4 km/h (2 Bft)
01.01.2012 15:00 16,1 C 12,4 C 0,0 UV-I 0,0 C 69 % 93 % 0 % 1009,7 hPa 0,1 l/m 6,3 km/h (2 Bft) 0,00 h 0,27 h 12,0 km/h (2 Bft)
01.01.2012 16:00 16,0 C 12,4 C 0,0 UV-I 0,0 C 70 % 93 % 0 % 1009,3 hPa 0,1 l/m 4,6 km/h (1 Bft) 0,00 h 0,07 h 9,1 km/h (2 Bft)
01.01.2012 17:00 15,9 C 12,6 C 0,0 UV-I 0,0 C 69 % 93 % 0 % 1008,5 hPa 0,0 l/m 5,2 km/h (1 Bft) 0,00 h 0,00 h 10,8 km/h (2 Bft)
01.01.2012 18:00 16,0 C 12,9 C 0,0 UV-I 0,0 C 69 % 91 % 0 % 1007,9 hPa 0,0 l/m 6,4 km/h (2 Bft) 0,00 h 0,00 h 12,1 km/h (2 Bft)
01.01.2012 19:00 16,3 C 13,5 C 0,0 UV-I 0,0 C 68 % 88 % 0 % 1007,0 hPa 0,0 l/m 8,9 km/h (2 Bft) 0,00 h 0,00 h 14,7 km/h (3 Bft)
01.01.2012 20:00 16,5 C 13,9 C 0,0 UV-I 0,0 C 67 % 86 % 0 % 1005,8 hPa 0,0 l/m 10,4 km/h (2 Bft) 0,00 h 0,00 h 17,6 km/h (3 Bft)
01.01.2012 21:00 16,6 C 14,2 C 0,0 UV-I 0,0 C 67 % 83 % 0 % 1005,0 hPa 0,0 l/m 10,8 km/h (2 Bft) 0,00 h 0,00 h 22,1 km/h (4 Bft)
01.01.2012 22:00 16,8 C 14,4 C 0,0 UV-I 0,0 C 66 % 81 % 0 % 1004,2 hPa 0,0 l/m 14,8 km/h (3 Bft) 0,00 h 0,00 h 26,4 km/h (4 Bft)
01.01.2012 23:00 16,8 C 14,5 C 0,0 UV-I 0,0 C 65 % 80 % 0 % 1003,7 hPa 0,0 l/m 15,6 km/h (3 Bft) 0,00 h 0,00 h 26,9 km/h (4 Bft)
Min-Datum _ 30.12.11 30.12.11 26.12.11 26.12.11 29.12.11 29.12.11 26.12.11 01.01.12 - 26.12.11 - - 26.12.11
_ Min-Zeit 09:18 04:36 00:00 00:00 12:48 12:54 00:00 23:24 - 19:28 - - 09:38
Minimum _ 12,9 C 2,8 C 0,0 UV-I 0,0 C 49 % 76 % 0 % 1003,6 hPa - 0,0 km/h (0 Bft) - - 0,0 km/h (0 Bft)
Max-Datum _ 01.01.12 01.01.12 30.12.11 29.12.11 01.01.12 31.12.11 29.12.11 26.12.11 31.12.11 29.12.11 28.12.11 26.12.11 30.12.11
_ Max-Zeit 23:30 22:36 12:18 11:46 11:26 14:12 11:42 20:44 07:00 20:58 09:54 00:36 04:18
Maximum _ 16,9 C 14,5 C 0,3 UV-I 3,6 C 70 % 95 % 100 % 1037,2 hPa 1,6 l/m 21,7 km/h
NW (4 Bft)
0,03 h 0,03 h 70,3 km/h
W-NW (8 Bft)
Durchschnitt _ 14,6 C 7,7 C 0,0 UV-I 0,1 C 59 % 89 % 2 % 1020,6 hPa #20,4 l/m 6,5 km/h (2 Bft) #2:28 h #25:50 h 11,9 km/h (2 Bft)
© 2012 W. Hausmann